Oregon State Flying Club

The Oregon State Flying Club is a non-profit organization committed to providing safe and inexpensive flying to the Oregon State University and Linn-Benton Community College communities. The Club currently owns three aircraft based at the Corvallis Airport for training, travel, and recreational purposes. Founded in 1952 and incorporated in 1956 the OSFC is one of the oldest continuously active flying clubs in the United States.

News & Announcements

Monthly Board Meeting

Next Meeting: Wednesday, December 17, 6pm location TBD

Current METAR KCVO

Raw METAR:  KCVO 250115Z AUTO 15010KT 10SM BKN085 OVC110 11/07 A3030 RMK AO1

This is a report for Corvallis Municipal Automatic Weather Observing / Reporting System, United States. The report was made 5 minutes ago, at 01:15 UTC. The wind was blowing at a speed of 11.5 miles per hour (5.1 meters per second) from south/southeast (150°). The temperature was 52 °F (11 °C), with a dew-point at 45 °F (7 °C). The atmospheric pressure was 30.30 inHg (1026 hPa). The relative humidity was 76.3%. There were broken clouds at a height of 8500 feet (2591 meters). The sky was overcast from a height of 11000 feet (3353 meter) The overall visibility was 10.0 miles (16.1 kilometers).